首页
METAR-TAF:

METAR-TAF

机场 :

查尔斯市, 艾奥瓦州, 美国

纬度: 43-04N, 经度: 092-37W, 海拔: 343米

当前天气观测

该预报发布于27分钟前的04:35 UTC
风速12节,风向南转南东
温度 27°C
湿度 84%
气压 1004 hPa
能見度: 16.1公里
天空无云

METAR: KCCY 250435Z AUTO 16012KT 10SM CLR 27/24 A2966 RMK AO2

时间: 00:02 (05:02 UTC)


TAF: 丢失

超过4000个机场的气象观测和天气预报(METAR&TAF报告)。

可查询的气象台以黄色和红色小点在地图上表示。

将鼠标移到小点上方,可查看气象台名称。

然后点击查看天气观测和预报。

如需切换地图:点击带黑十字的绿色按钮放大地图;点击带横线的绿色按钮缩小地图;或者点击绿色箭头查看邻近地区的地图。


METAR-TAF: